Time;durP1;ratioP1;P1;durP2;ratioP2;P2;SDS_P1;SDS_P2;PMS_P1;PMS_P2;Temp;Humidity;BMP_temperature;BMP_pressure;BME280_temperature;BME280_humidity;BME280_pressure;Samples;Min_cycle;Max_cycle;Signal;HPM_P1;HPM_P2
2023/10/20 16:58:36;;;;;;;4.13;2.40;;;;;;;14.18;100.00;92401.31;5436782;23;20078;-88
2023/10/20 17:01:03;;;;;;;5.13;1.90;;;;;;;14.54;100.00;92383.75;4887806;29;20041;-90
2023/10/20 17:03:28;;;;;;;6.30;0.98;;;;;;;14.45;100.00;92385.78;4884538;29;20500;-89
2023/10/20 17:05:54;;;;;;;2.97;0.60;;;;;;;14.44;100.00;92378.25;4901912;29;20036;-89
2023/10/20 17:08:19;;;;;;;18.40;12.68;;;;;;;14.78;100.00;92374.19;4869358;29;20035;-89
2023/10/20 17:10:44;;;;;;;5.88;1.02;;;;;;;14.43;100.00;92393.28;4891361;29;20030;-88
2023/10/20 17:13:10;;;;;;;4.38;0.65;;;;;;;14.54;100.00;92381.13;4884207;29;20123;-89
2023/10/20 17:15:54;;;;;;;2.65;0.40;;;;;;;14.78;100.00;92382.09;4870185;29;20342;-89
2023/10/20 17:18:19;;;;;;;2.97;1.77;;;;;;;14.81;100.00;92391.16;4900958;29;20337;-89
2023/10/20 17:21:03;;;;;;;7.68;1.02;;;;;;;14.37;100.00;92389.38;4884890;29;20042;-89
2023/10/20 17:23:30;;;;;;;2.80;0.85;;;;;;;14.64;100.00;92400.91;4886300;29;20166;-89
2023/10/20 17:25:57;;;;;;;1.70;0.73;;;;;;;14.26;100.00;92407.53;4885488;29;20033;-89
2023/10/20 17:28:25;;;;;;;2.60;0.70;;;;;;;14.30;100.00;92416.31;4900399;29;20032;-88
2023/10/20 17:30:57;;;;;;;2.97;2.17;;;;;;;14.18;100.00;92377.59;4900342;29;20028;-89
2023/10/20 17:33:41;;;;;;;1.98;0.60;;;;;;;13.82;100.00;92374.09;4869455;29;20116;-88
2023/10/20 17:36:07;;;;;;;6.18;0.70;;;;;;;13.70;100.00;92367.75;4900244;29;20028;-89
2023/10/20 17:38:33;;;;;;;4.30;1.77;;;;;;;13.96;100.00;92363.16;4900012;29;20025;-89
2023/10/20 17:41:07;;;;;;;2.72;1.02;;;;;;;14.09;100.00;92379.66;4899954;29;20060;-89
2023/10/20 17:43:52;;;;;;;4.85;0.60;;;;;;;13.96;100.00;92390.25;4884862;29;20083;-89
2023/10/20 17:46:18;;;;;;;7.75;0.90;;;;;;;13.56;100.00;92357.63;4885735;29;20037;-89
2023/10/20 17:48:43;;;;;;;19.52;1.52;;;;;;;13.80;100.00;92344.72;4884451;29;20051;-88
2023/10/20 17:51:10;;;;;;;4.05;0.88;;;;;;;13.85;100.00;92318.13;4885599;29;20043;-90
2023/10/20 17:53:54;;;;;;;1.10;0.22;;;;;;;14.23;100.00;92332.59;4899586;29;20032;-89
2023/10/20 17:56:20;;;;;;;0.45;0.40;;;;;;;14.41;100.00;92348.06;4899599;29;20033;-90
2023/10/20 17:58:45;;;;;;;5.88;0.50;;;;;;;14.44;100.00;92347.38;4899479;29;20041;-90
2023/10/20 18:01:11;;;;;;;2.08;0.50;;;;;;;14.96;100.00;92360.63;4853564;29;20414;-88
2023/10/20 18:03:42;;;;;;;4.05;1.55;;;;;;;15.00;100.00;92350.91;4853857;29;20033;-88
2023/10/20 18:06:15;;;;;;;3.08;0.40;;;;;;;15.07;100.00;92363.47;4869404;29;20033;-88
2023/10/20 18:08:44;;;;;;;4.13;2.17;;;;;;;14.97;100.00;92368.16;4884278;29;20334;-89
2023/10/20 18:11:11;;;;;;;28.02;13.63;;;;;;;15.09;100.00;92388.41;4868620;29;20474;-88
2023/10/20 18:14:14;;;;;;;9.52;0.55;;;;;;;15.13;100.00;92391.88;4850276;29;20066;-89
2023/10/20 18:19:27;;;;;;;5.90;2.05;;;;;;;15.02;100.00;92374.31;4884675;29;20125;-89
2023/10/20 18:21:52;;;;;;;2.65;0.70;;;;;;;14.98;100.00;92368.94;4865901;29;20041;-89
2023/10/20 18:24:18;;;;;;;4.32;0.63;;;;;;;14.96;100.00;92381.72;4865140;29;20041;-89
2023/10/20 18:29:46;;;;;;;3.85;1.35;;;;;;;14.65;100.00;92355.00;4866134;29;20041;-89
2023/10/20 18:32:11;;;;;;;7.07;2.40;;;;;;;14.59;100.00;92360.88;4880671;29;20034;-89
2023/10/20 18:34:37;;;;;;;3.88;1.92;;;;;;;14.44;100.00;92344.75;4880878;29;20029;-89
2023/10/20 18:37:02;;;;;;;5.25;0.63;;;;;;;14.53;100.00;92345.34;4884828;29;20121;-89
2023/10/20 18:39:28;;;;;;;8.88;2.33;;;;;;;14.30;100.00;92333.88;4899144;29;20037;-89
2023/10/20 18:41:53;;;;;;;3.78;0.60;;;;;;;13.80;100.00;92321.78;4899340;29;20039;-89
2023/10/20 18:44:37;;;;;;;4.32;0.50;;;;;;;14.11;100.00;92359.00;4898988;29;20025;-89
2023/10/20 18:47:04;;;;;;;4.15;0.50;;;;;;;14.32;100.00;92381.69;4899097;29;20430;-89
2023/10/20 18:49:29;;;;;;;2.78;0.75;;;;;;;14.54;100.00;92380.34;4883450;29;20414;-89
2023/10/20 18:52:13;;;;;;;4.47;0.85;;;;;;;15.11;100.00;92394.09;4883747;29;20024;-89
2023/10/20 18:54:39;;;;;;;4.57;0.95;;;;;;;15.23;100.00;92400.38;4898956;29;20439;-89
2023/10/20 18:57:04;;;;;;;7.05;1.80;;;;;;;15.41;100.00;92398.88;4867828;29;20041;-89
2023/10/20 19:02:33;;;;;;;3.90;1.27;;;;;;;15.48;100.00;92432.56;4896867;29;20036;-89
2023/10/20 19:04:58;;;;;;;4.10;1.52;;;;;;;15.53;100.00;92440.19;4898599;29;20025;-90
2023/10/20 19:07:24;;;;;;;2.22;0.77;;;;;;;15.53;100.00;92437.56;4898376;29;20036;-89
2023/10/20 19:09:53;;;;;;;5.03;0.68;;;;;;;15.83;100.00;92431.72;4898566;29;20418;-89
2023/10/20 19:12:20;;;;;;;3.15;0.60;;;;;;;15.82;100.00;92442.66;4898019;29;20039;-89
2023/10/20 19:17:29;;;;;;;5.88;1.05;;;;;;;15.60;100.00;92431.66;4870055;29;20480;-89
2023/10/20 19:22:40;;;;;;;3.83;0.85;;;;;;;15.86;100.00;92440.84;4869612;29;20089;-89
2023/10/20 19:25:07;;;;;;;2.85;0.57;;;;;;;15.95;100.00;92456.50;4867347;29;20345;-89
2023/10/20 19:33:20;;;;;;;3.63;0.80;;;;;;;16.17;100.00;92459.56;4883618;29;20085;-89
2023/10/20 19:36:04;;;;;;;1.33;0.35;;;;;;;16.16;100.00;92472.00;4866586;29;20029;-89
2023/10/20 19:38:31;;;;;;;2.03;0.60;;;;;;;16.19;100.00;92468.66;4883535;29;20060;-89
2023/10/20 19:40:57;;;;;;;4.05;0.57;;;;;;;16.29;100.00;92485.84;4867032;29;20029;-89
2023/10/20 19:43:23;;;;;;;2.30;0.63;;;;;;;16.07;100.00;92485.44;4867128;29;20422;-89
2023/10/20 19:46:10;;;;;;;2.72;0.40;;;;;;;16.28;100.00;92507.31;4867102;29;20044;-89
2023/10/20 19:48:35;;;;;;;1.90;0.50;;;;;;;16.04;100.00;92511.75;4883315;29;20498;-89
2023/10/20 19:51:01;;;;;;;2.47;0.47;;;;;;;15.97;100.00;92504.47;4866573;29;20029;-89
2023/10/20 19:53:26;;;;;;;4.43;0.82;;;;;;;15.93;100.00;92514.97;4851788;29;20050;-90
2023/10/20 19:55:52;;;;;;;2.65;0.43;;;;;;;15.72;100.00;92503.91;4866599;29;20379;-88
2023/10/20 19:58:17;;;;;;;3.55;0.50;;;;;;;16.00;100.00;92524.13;4851555;29;20029;-89
2023/10/20 20:01:02;;;;;;;1.52;0.40;;;;;;;16.18;100.00;92501.47;4866740;29;20035;-89
2023/10/20 20:03:29;;;;;;;2.78;0.52;;;;;;;15.95;100.00;92536.50;4883164;29;20036;-88
2023/10/20 20:05:55;;;;;;;1.70;0.50;;;;;;;16.00;100.00;92559.25;4866762;29;20033;-88
2023/10/20 20:08:20;;;;;;;5.50;0.50;;;;;;;16.04;100.00;92562.72;4851244;29;20033;-89
2023/10/20 20:10:45;;;;;;;1.45;0.40;;;;;;;15.75;100.00;92558.66;4883232;29;20036;-89
2023/10/20 20:16:15;;;;;;;5.93;0.40;;;;;;;15.16;100.00;92582.19;4869206;29;20044;-88
2023/10/20 20:18:41;;;;;;;1.80;0.47;;;;;;;15.69;100.00;92574.00;4866523;29;20089;-89
2023/10/20 20:23:51;;;;;;;2.55;0.32;;;;;;;15.63;100.00;92570.09;4868996;29;20093;-88
2023/10/20 20:29:19;;;;;;;1.15;0.40;;;;;;;15.66;100.00;92590.53;4882951;29;20048;-89
2023/10/20 20:31:45;;;;;;;3.40;0.47;;;;;;;15.80;100.00;92587.47;4866367;29;20037;-89
2023/10/20 20:34:10;;;;;;;2.13;0.30;;;;;;;15.79;100.00;92584.03;4851233;29;20032;-90
2023/10/20 20:36:54;;;;;;;1.30;0.40;;;;;;;15.80;100.00;92587.47;4866229;29;20545;-89
2023/10/20 20:39:19;;;;;;;3.47;0.40;;;;;;;15.68;100.00;92601.50;4866340;29;20072;-89
2023/10/20 20:41:45;;;;;;;5.50;0.38;;;;;;;15.89;100.00;92609.19;4866278;29;20029;-89
2023/10/20 20:44:10;;;;;;;3.53;0.40;;;;;;;15.89;100.00;92614.47;4866335;29;20037;-88
2023/10/20 20:46:54;;;;;;;3.55;0.40;;;;;;;16.04;100.00;92599.72;4866917;29;20426;-89
2023/10/20 20:49:20;;;;;;;1.20;0.45;;;;;;;15.97;100.00;92618.81;4886571;29;20037;-89
2023/10/20 20:51:45;;;;;;;0.95;0.28;;;;;;;16.17;100.00;92602.22;4870036;29;20040;-89
2023/10/20 20:57:13;;;;;;;3.97;0.60;;;;;;;16.02;100.00;92609.06;4872550;29;20474;-90
2023/10/20 20:59:38;;;;;;;3.25;0.75;;;;;;;16.08;100.00;92628.84;4886255;29;20037;-89
2023/10/20 21:02:04;;;;;;;2.30;0.60;;;;;;;16.10;100.00;92631.91;4869837;29;20176;-89
2023/10/20 21:04:29;;;;;;;5.05;0.82;;;;;;;16.20;100.00;92622.66;4869724;29;20126;-89
2023/10/20 21:06:55;;;;;;;1.83;0.32;;;;;;;16.24;100.00;92650.72;4869821;29;20115;-89
2023/10/20 21:12:25;;;;;;;1.83;0.40;;;;;;;16.13;100.00;92644.41;4872188;29;20112;-89
2023/10/20 21:14:51;;;;;;;3.10;0.50;;;;;;;16.14;100.00;92648.59;4869890;29;20081;-88
2023/10/20 21:17:35;;;;;;;2.95;0.40;;;;;;;16.29;100.00;92681.38;4886284;29;20037;-89
2023/10/20 21:20:01;;;;;;;0.75;0.30;;;;;;;16.19;100.00;92676.63;4854308;29;20040;-89
2023/10/20 21:27:54;;;;;;;0.95;0.30;;;;;;;16.09;100.00;92662.06;4871986;29;20044;-89
2023/10/20 21:30:20;;;;;;;3.60;0.28;;;;;;;16.04;100.00;92662.31;4854176;29;20353;-89
2023/10/20 21:32:45;;;;;;;8.23;0.75;;;;;;;16.09;100.00;92672.63;4853807;29;20036;-89
2023/10/20 21:35:10;;;;;;;3.22;0.82;;;;;;;16.01;100.00;92665.66;4854094;29;20403;-89
2023/10/20 21:37:36;;;;;;;5.20;0.43;;;;;;;15.78;100.00;92679.44;4886436;29;20097;-89
2023/10/20 21:40:02;;;;;;;1.25;0.45;;;;;;;15.79;100.00;92646.66;4869258;29;20433;-89
2023/10/20 21:42:27;;;;;;;2.97;0.52;;;;;;;15.85;100.00;92674.31;4868866;29;20033;-89
2023/10/20 21:44:53;;;;;;;1.40;0.25;;;;;;;15.82;100.00;92682.94;4869113;29;20053;-89
2023/10/20 21:47:18;;;;;;;4.97;0.50;;;;;;;15.86;100.00;92685.66;4853937;29;20399;-89
2023/10/20 21:52:28;;;;;;;5.07;0.52;;;;;;;15.77;100.00;92665.47;4885617;29;20088;-88
2023/10/20 21:54:54;;;;;;;4.07;0.52;;;;;;;15.84;100.00;92662.22;4868916;29;20021;-89
2023/10/20 21:57:39;;;;;;;6.85;0.65;;;;;;;15.99;100.00;92662.59;4869099;29;20120;-89
2023/10/20 22:00:38;;;;;;;3.83;0.55;;;;;;;15.80;100.00;92638.38;4853070;29;20033;-89
2023/10/20 22:02:56;;;;;;;2.83;0.50;;;;;;;15.78;100.00;92651.16;4871181;29;20481;-88
2023/10/20 22:05:21;;;;;;;2.05;0.40;;;;;;;16.01;100.00;92655.88;4868755;29;20123;-89
2023/10/20 22:07:47;;;;;;;10.65;0.95;;;;;;;15.94;100.00;92658.34;4885300;29;20061;-89
2023/10/20 22:10:12;;;;;;;3.65;0.57;;;;;;;15.69;100.00;92664.53;4868751;29;20029;-90
2023/10/20 22:12:38;;;;;;;3.58;0.80;;;;;;;15.61;100.00;92656.78;4853103;29;20151;-90
2023/10/20 22:15:03;;;;;;;3.55;0.57;;;;;;;15.55;100.00;92651.75;4853202;29;20077;-89
2023/10/20 22:17:29;;;;;;;2.83;0.82;;;;;;;15.56;100.00;92655.16;4868533;29;20041;-89
2023/10/20 22:19:54;;;;;;;5.70;0.70;;;;;;;15.35;100.00;92650.91;4868483;29;20033;-89
2023/10/20 22:22:20;;;;;;;5.93;0.85;;;;;;;15.20;100.00;92652.41;4853183;29;20052;-89
2023/10/20 22:25:04;;;;;;;8.15;0.98;;;;;;;15.17;100.00;92666.28;4868396;29;20049;-89
2023/10/20 22:27:30;;;;;;;6.82;0.52;;;;;;;15.42;100.00;92658.22;4868351;29;20398;-89
2023/10/20 22:29:57;;;;;;;5.03;0.60;;;;;;;15.01;100.00;92647.78;4853171;29;20079;-90
2023/10/20 22:32:41;;;;;;;3.97;0.82;;;;;;;14.94;100.00;92658.91;4852966;29;20092;-89
2023/10/20 22:35:07;;;;;;;6.25;0.50;;;;;;;15.21;100.00;92658.47;4868342;29;20493;-89
2023/10/20 22:37:32;;;;;;;5.15;0.60;;;;;;;15.36;100.00;92647.16;4853102;29;20041;-89
2023/10/20 22:40:17;;;;;;;5.13;0.60;;;;;;;15.06;100.00;92639.63;4867885;29;20041;-90
2023/10/20 22:42:42;;;;;;;9.88;0.50;;;;;;;14.87;100.00;92635.00;4867948;29;20448;-89
2023/10/20 22:45:08;;;;;;;5.80;0.60;;;;;;;15.23;100.00;92649.09;4868044;29;20037;-89
2023/10/20 22:47:34;;;;;;;11.05;1.05;;;;;;;15.30;100.00;92645.13;4867969;29;20350;-89
2023/10/20 22:49:59;;;;;;;2.25;0.65;;;;;;;15.14;100.00;92659.06;4867794;29;20326;-90
2023/10/20 22:52:25;;;;;;;2.20;0.57;;;;;;;15.23;100.00;92661.53;4867652;29;20349;-90
2023/10/20 22:54:50;;;;;;;8.70;0.95;;;;;;;15.27;100.00;92657.84;4852193;29;20331;-89
2023/10/20 22:57:16;;;;;;;1.88;0.65;;;;;;;15.32;100.00;92656.84;4867916;29;20033;-90
2023/10/20 23:00:00;;;;;;;5.78;0.63;;;;;;;15.34;100.00;92659.91;4867477;29;20089;-89
2023/10/20 23:02:25;;;;;;;7.65;1.08;;;;;;;15.44;100.00;92673.72;4884084;29;20039;-89
2023/10/20 23:04:50;;;;;;;10.75;0.93;;;;;;;15.44;100.00;92689.56;4867678;29;20041;-89
2023/10/20 23:07:16;;;;;;;4.95;0.90;;;;;;;15.36;100.00;92697.31;4852504;29;20036;-89
2023/10/20 23:09:41;;;;;;;6.88;0.70;;;;;;;15.54;100.00;92689.06;4852116;29;20040;-89
2023/10/20 23:12:26;;;;;;;5.50;0.68;;;;;;;14.98;100.00;92686.13;4867054;29;20346;-90
2023/10/20 23:17:54;;;;;;;5.95;0.80;;;;;;;15.62;100.00;92698.66;4893906;29;20058;-89
2023/10/20 23:20:20;;;;;;;6.57;1.15;;;;;;;15.57;100.00;92704.22;4870380;29;20036;-90
2023/10/20 23:22:46;;;;;;;9.02;1.05;;;;;;;15.75;100.00;92698.59;4885666;29;20430;-89
2023/10/20 23:27:55;;;;;;;7.60;0.82;;;;;;;15.15;100.00;92715.97;4888539;29;20091;-89
2023/10/20 23:30:20;;;;;;;7.50;0.90;;;;;;;15.44;100.00;92722.00;4885910;29;20032;-89
2023/10/20 23:32:46;;;;;;;7.45;1.05;;;;;;;15.43;100.00;92720.47;4901407;29;20130;-89
2023/10/20 23:35:11;;;;;;;8.70;0.90;;;;;;;15.40;100.00;92715.84;4902536;29;20127;-89
2023/10/20 23:37:56;;;;;;;5.85;0.70;;;;;;;15.41;100.00;92720.00;4885805;29;20044;-89
2023/10/20 23:40:22;;;;;;;4.55;0.60;;;;;;;15.62;100.00;92711.13;4902165;29;20457;-89
2023/10/20 23:42:47;;;;;;;4.72;0.82;;;;;;;15.47;100.00;92720.53;4885661;29;20071;-90
2023/10/20 23:45:31;;;;;;;5.72;0.80;;;;;;;15.24;100.00;92719.22;4885310;29;20063;-89
2023/10/20 23:47:56;;;;;;;4.85;0.65;;;;;;;15.24;100.00;92729.00;4916923;29;20063;-89
2023/10/20 23:56:09;;;;;;;3.40;0.75;;;;;;;15.25;100.00;92743.75;4888058;29;20080;-89
2023/10/20 23:58:35;;;;;;;3.50;0.82;;;;;;;14.82;100.00;92740.69;4885330;29;20033;-89
